Startpagina
METAR-TAF:

METAR-TAF

Vliegvelden :

Vliegbasis Chièvres

Chièvres, België

breedte: 50-34N, lengte: 003-50E, hoogte: 60 m

Actueel weer

Dit bericht is 49 minuten geleden gemaakt, om 13:55 UTC
Wind 6 kt uit het noorden
Temperatuur 2°C
Vochtigheid 69%
Druk 1017 hPa
Zicht 10 km of meer

METAR: EBCV 201355Z AUTO 01006KT 9999 NCD 02/M03 Q1017 BLU

Tijdstip: 15:44 (14:44 UTC)

Verwachting

Dit bericht is 3 uur en het 3 minuten geleden gemaakt, om 11:41 UTC
Verwachting geldig van 20 om 13 UTC tot 20 om 22 UTC
Wind 7 kt uit het noordoosten
Zicht 10 km of meer
Onbewolkt

TAF: EBCV 201141Z 2013/2022 05007KT 9999 SKC BY EBWM

Waarnemingen en weersverwachtingen van meer dan 4000 vliegvelden (METAR en TAF).

De beschikbare stations zijn de gele en rode punten op de kaart.

Ga met uw muis naar het station om de naam te zien.

Klik dan om waarnemingen en weersverwachtingen te zien.

kaart wijzigen: klik op de groene knoppen met een zwart kruis om in te zoomen, op de groene knop met een streepje om uit te zoomen of op de groene pijlen voor aangrenzende kaarten.


METAR-TAF: